Time;durP1;ratioP1;P1;durP2;ratioP2;P2;SDS_P1;SDS_P2;PMS_P1;PMS_P2;Temp;Humidity;BMP_temperature;BMP_pressure;BME280_temperature;BME280_humidity;BME280_pressure;Samples;Min_cycle;Max_cycle;Signal;HPM_P1;HPM_P2
2022/08/26 00:01:11;;;;;;;62.78;51.03;;;26.30;58.30;;;;;;4916891;28;93788;-58
2022/08/26 00:03:38;;;;;;;62.28;50.65;;;26.30;58.30;;;;;;4922043;28;90654;-58
2022/08/26 00:06:04;;;;;;;61.92;50.83;;;26.30;58.30;;;;;;4914052;28;90228;-58
2022/08/26 00:08:30;;;;;;;62.85;50.88;;;26.30;58.30;;;;;;4913976;28;92221;-57
2022/08/26 00:10:55;;;;;;;62.50;50.83;;;26.30;58.30;;;;;;4913830;28;92004;-58
2022/08/26 00:13:21;;;;;;;62.92;50.65;;;26.30;58.20;;;;;;4916318;28;90282;-59
2022/08/26 00:15:49;;;;;;;61.78;50.67;;;26.30;58.30;;;;;;4925549;28;90194;-59
2022/08/26 00:18:14;;;;;;;62.60;50.90;;;26.30;58.70;;;;;;4907444;28;90375;-58
2022/08/26 00:20:40;;;;;;;61.30;50.75;;;26.30;58.30;;;;;;4918701;28;90742;-58
2022/08/26 00:23:06;;;;;;;62.22;50.65;;;26.30;58.30;;;;;;4911272;28;96055;-59
2022/08/26 00:25:32;;;;;;;62.03;50.65;;;26.30;58.30;;;;;;4919062;28;90726;-58
2022/08/26 00:27:58;;;;;;;62.22;50.55;;;26.30;58.20;;;;;;4927399;28;91574;-58
2022/08/26 00:30:26;;;;;;;61.30;50.50;;;26.30;58.20;;;;;;4911562;28;94852;-58
2022/08/26 00:32:52;;;;;;;61.80;50.33;;;26.30;58.30;;;;;;4919145;28;96736;-58
2022/08/26 00:35:18;;;;;;;61.75;50.83;;;26.30;58.30;;;;;;4921927;28;91801;-54
2022/08/26 00:37:44;;;;;;;62.63;50.83;;;26.30;58.20;;;;;;4917271;28;90344;-58
2022/08/26 00:40:15;;;;;;;62.03;50.60;;;26.30;58.10;;;;;;4914882;28;97915;-57
2022/08/26 00:42:41;;;;;;;61.72;50.85;;;26.30;58.20;;;;;;4908609;28;92057;-54
2022/08/26 00:45:07;;;;;;;61.53;50.53;;;26.30;58.20;;;;;;4916198;28;94744;-58
2022/08/26 00:47:42;;;;;;;61.78;50.75;;;26.30;58.20;;;;;;4925561;28;90614;-58
2022/08/26 00:50:13;;;;;;;62.83;50.70;;;26.30;58.30;;;;;;4916287;28;89350;-59
2022/08/26 00:52:40;;;;;;;61.90;50.83;;;26.30;58.30;;;;;;4921888;28;89456;-58
2022/08/26 00:55:10;;;;;;;62.28;50.75;;;26.30;58.20;;;;;;4906585;28;91113;-57
2022/08/26 00:57:36;;;;;;;62.58;50.83;;;26.30;58.10;;;;;;4924099;28;90974;-58
2022/08/26 01:00:08;;;;;;;62.42;50.83;;;26.20;58.20;;;;;;4905207;28;92767;-58
2022/08/26 01:02:34;;;;;;;61.67;50.63;;;26.30;58.10;;;;;;4899755;28;91227;-58
2022/08/26 01:05:02;;;;;;;62.20;50.58;;;26.20;58.00;;;;;;4918029;28;89940;-59
2022/08/26 01:07:30;;;;;;;61.97;50.67;;;26.30;58.10;;;;;;4928988;28;94414;-59
2022/08/26 01:09:58;;;;;;;62.15;50.70;;;26.20;58.10;;;;;;4916540;28;91587;-58
2022/08/26 01:12:28;;;;;;;63.13;50.63;;;26.20;58.10;;;;;;4915727;28;90869;-58
2022/08/26 01:14:54;;;;;;;62.55;50.65;;;26.20;58.20;;;;;;4920429;28;90510;-56
2022/08/26 01:17:20;;;;;;;61.58;50.75;;;26.20;58.10;;;;;;4918803;28;90862;-57
2022/08/26 01:19:56;;;;;;;61.92;50.80;;;26.20;58.20;;;;;;4926161;28;91129;-57
2022/08/26 01:22:38;;;;;;;61.95;50.75;;;26.20;58.30;;;;;;4914501;28;96391;-57
2022/08/26 01:25:04;;;;;;;61.83;50.65;;;26.20;58.10;;;;;;4909857;28;91962;-60
2022/08/26 01:27:31;;;;;;;61.53;50.50;;;26.20;58.10;;;;;;4899281;28;95349;-57
2022/08/26 01:29:59;;;;;;;61.25;50.40;;;26.20;58.10;;;;;;4924118;28;94678;-58
2022/08/26 01:32:25;;;;;;;62.88;50.63;;;26.20;58.30;;;;;;4921572;28;90079;-58
2022/08/26 01:34:51;;;;;;;61.10;50.53;;;26.20;58.30;;;;;;4921866;28;89773;-59
2022/08/26 01:37:24;;;;;;;61.67;50.45;;;26.20;58.20;;;;;;4927559;28;89608;-58
2022/08/26 01:39:53;;;;;;;62.38;50.80;;;26.20;58.30;;;;;;4923974;28;90580;-58
2022/08/26 01:42:21;;;;;;;61.63;50.65;;;26.20;58.10;;;;;;4917314;28;91007;-58
2022/08/26 01:45:08;;;;;;;62.40;50.85;;;26.20;58.20;;;;;;4921267;28;90771;-59
2022/08/26 01:47:36;;;;;;;61.90;50.35;;;26.20;58.20;;;;;;4918259;28;96371;-58
2022/08/26 01:50:08;;;;;;;302.58;88.03;;;26.20;58.20;;;;;;4910284;28;96492;-58
2022/08/26 01:52:37;;;;;;;62.15;50.65;;;26.20;58.30;;;;;;4912978;28;93890;-57
2022/08/26 01:55:03;;;;;;;63.50;50.85;;;26.20;58.20;;;;;;4929881;28;90441;-58
2022/08/26 01:57:29;;;;;;;62.80;50.78;;;26.20;58.20;;;;;;4933987;28;90581;-57
2022/08/26 01:59:58;;;;;;;62.58;50.75;;;26.20;58.10;;;;;;4910548;28;91014;-57
2022/08/26 02:02:25;;;;;;;62.92;50.92;;;26.20;58.00;;;;;;4912438;28;91056;-58
2022/08/26 02:04:58;;;;;;;62.60;50.65;;;26.20;58.20;;;;;;4924296;28;89418;-58
2022/08/26 02:07:25;;;;;;;62.08;50.72;;;26.20;58.10;;;;;;4922177;28;91238;-56
2022/08/26 02:09:51;;;;;;;61.85;50.78;;;26.20;58.30;;;;;;4920363;28;93141;-58
2022/08/26 02:12:18;;;;;;;61.28;50.40;;;26.20;58.30;;;;;;4907334;28;91051;-58
2022/08/26 02:14:50;;;;;;;62.05;50.53;;;26.20;58.20;;;;;;4916827;28;89855;-58
2022/08/26 02:17:20;;;;;;;61.33;50.45;;;26.20;58.30;;;;;;4917377;28;92264;-58
2022/08/26 02:19:48;;;;;;;62.13;50.70;;;26.20;58.30;;;;;;4911728;28;94411;-58
2022/08/26 02:22:20;;;;;;;62.63;50.63;;;26.20;58.30;;;;;;4917472;28;91233;-58
2022/08/26 02:24:46;;;;;;;61.65;50.65;;;26.20;58.30;;;;;;4929679;28;89858;-58
2022/08/26 02:27:13;;;;;;;61.60;50.38;;;26.20;58.30;;;;;;4918602;28;90731;-58
2022/08/26 02:29:43;;;;;;;62.78;50.72;;;26.20;58.30;;;;;;4921446;28;90056;-58
2022/08/26 02:32:10;;;;;;;61.43;50.50;;;26.20;58.40;;;;;;4912599;28;89723;-58
2022/08/26 02:34:36;;;;;;;61.45;50.35;;;26.20;58.30;;;;;;4922324;28;90030;-58
2022/08/26 02:37:06;;;;;;;61.72;50.60;;;26.20;58.30;;;;;;4913584;28;90619;-57
2022/08/26 02:39:33;;;;;;;61.38;50.45;;;26.20;58.30;;;;;;4916716;28;95530;-58
2022/08/26 02:41:59;;;;;;;62.05;50.60;;;26.20;58.20;;;;;;4903749;28;92997;-57
2022/08/26 02:44:26;;;;;;;61.67;50.45;;;26.20;58.20;;;;;;4923534;28;92754;-56
2022/08/26 02:46:52;;;;;;;62.50;50.47;;;26.10;58.20;;;;;;4916734;28;90631;-58
2022/08/26 02:49:18;;;;;;;61.25;50.28;;;26.20;58.30;;;;;;4919498;28;91324;-58
2022/08/26 02:51:45;;;;;;;62.72;50.65;;;26.20;58.30;;;;;;4921977;28;90227;-57
2022/08/26 02:54:11;;;;;;;61.55;50.40;;;26.20;58.30;;;;;;4926798;28;89030;-57
2022/08/26 02:56:37;;;;;;;62.45;50.65;;;26.20;58.10;;;;;;4919105;28;91461;-59
2022/08/26 02:59:03;;;;;;;61.67;50.63;;;26.20;58.20;;;;;;4911225;28;90329;-58
2022/08/26 03:01:31;;;;;;;62.03;50.72;;;26.20;58.30;;;;;;4921225;28;92562;-58
2022/08/26 03:03:58;;;;;;;61.42;50.53;;;26.20;58.30;;;;;;4916096;28;90506;-60
2022/08/26 03:06:24;;;;;;;61.45;50.60;;;26.20;58.30;;;;;;4900672;28;91919;-57
2022/08/26 03:08:51;;;;;;;61.45;50.42;;;26.10;58.20;;;;;;4913004;28;90414;-58
2022/08/26 03:11:18;;;;;;;61.40;50.65;;;26.20;58.20;;;;;;4917324;28;96600;-58
2022/08/26 03:13:44;;;;;;;62.10;50.53;;;26.10;58.10;;;;;;4911535;28;92193;-58
2022/08/26 03:16:10;;;;;;;61.22;50.55;;;26.20;58.30;;;;;;4909823;28;91177;-58
2022/08/26 03:18:36;;;;;;;61.42;50.45;;;26.10;58.20;;;;;;4928660;28;90133;-58
2022/08/26 03:21:14;;;;;;;61.53;50.45;;;26.10;58.10;;;;;;4922856;28;90527;-58
2022/08/26 03:23:41;;;;;;;61.20;50.53;;;26.10;58.20;;;;;;4918456;28;90337;-58
2022/08/26 03:26:09;;;;;;;61.55;50.63;;;26.10;58.20;;;;;;4917750;28;93731;-58
2022/08/26 03:28:35;;;;;;;62.03;50.45;;;26.10;58.30;;;;;;4915951;28;91647;-59
2022/08/26 03:31:01;;;;;;;61.80;50.63;;;26.10;58.20;;;;;;4921159;28;91339;-58
2022/08/26 03:33:27;;;;;;;60.92;50.28;;;26.10;58.20;;;;;;4912987;28;95914;-58
2022/08/26 03:35:53;;;;;;;61.35;50.47;;;26.10;58.20;;;;;;4910109;28;91076;-58
2022/08/26 03:38:25;;;;;;;62.38;50.45;;;26.10;58.20;;;;;;4915824;28;90576;-59
2022/08/26 03:40:51;;;;;;;63.05;50.35;;;26.10;58.20;;;;;;4932785;28;92156;-58
2022/08/26 03:43:17;;;;;;;61.38;50.50;;;26.10;58.20;;;;;;4915670;28;90895;-58
2022/08/26 03:45:43;;;;;;;61.58;50.50;;;26.10;58.20;;;;;;4924516;28;90481;-58
2022/08/26 03:48:10;;;;;;;62.28;50.50;;;26.10;58.30;;;;;;4928544;28;89992;-58
2022/08/26 03:50:36;;;;;;;61.42;50.63;;;26.10;58.40;;;;;;4919174;28;91611;-58
2022/08/26 03:53:03;;;;;;;61.92;50.35;;;26.10;58.20;;;;;;4921980;28;90234;-58
2022/08/26 03:55:31;;;;;;;61.08;50.47;;;26.10;58.10;;;;;;4922680;28;92215;-59
2022/08/26 03:57:57;;;;;;;61.55;50.72;;;26.10;58.20;;;;;;4923074;28;91492;-58
2022/08/26 04:00:23;;;;;;;61.65;50.45;;;26.10;58.20;;;;;;4923446;28;90227;-58
2022/08/26 04:02:49;;;;;;;60.78;50.25;;;26.10;58.20;;;;;;4928951;28;90171;-58
2022/08/26 04:05:18;;;;;;;61.17;50.63;;;26.10;58.40;;;;;;4917349;28;89970;-59
2022/08/26 04:07:44;;;;;;;61.35;50.53;;;26.00;58.30;;;;;;4922384;28;91465;-58
2022/08/26 04:10:12;;;;;;;62.13;50.63;;;26.10;58.40;;;;;;4921235;28;89991;-61
2022/08/26 04:12:38;;;;;;;62.50;50.40;;;26.00;58.40;;;;;;4915285;28;95245;-58
2022/08/26 04:15:06;;;;;;;61.35;50.33;;;26.10;58.30;;;;;;4921197;28;91836;-58
2022/08/26 04:17:32;;;;;;;61.47;50.65;;;26.10;58.30;;;;;;4929693;28;91300;-58
2022/08/26 04:19:58;;;;;;;61.40;50.55;;;26.00;58.40;;;;;;4924641;28;92271;-58
2022/08/26 04:22:24;;;;;;;62.58;50.45;;;26.10;58.40;;;;;;4922391;28;92622;-58
2022/08/26 04:24:49;;;;;;;62.50;50.42;;;26.00;58.50;;;;;;4926204;28;90021;-53
2022/08/26 04:27:15;;;;;;;61.55;50.42;;;26.00;58.30;;;;;;4927101;28;92419;-58
2022/08/26 04:29:42;;;;;;;61.05;50.22;;;26.00;58.40;;;;;;4924315;28;96776;-58
2022/08/26 04:32:08;;;;;;;63.42;50.45;;;26.10;58.40;;;;;;4914742;28;90233;-58
2022/08/26 04:34:34;;;;;;;62.38;50.45;;;26.00;58.40;;;;;;4924732;28;90234;-59
2022/08/26 04:37:00;;;;;;;61.45;50.25;;;26.00;58.40;;;;;;4919703;28;90987;-58
2022/08/26 04:39:26;;;;;;;62.08;50.58;;;26.00;58.40;;;;;;4925658;28;92902;-57
2022/08/26 04:41:56;;;;;;;62.65;50.42;;;26.00;58.60;;;;;;4917527;28;96133;-58
2022/08/26 04:44:26;;;;;;;61.33;50.35;;;26.00;58.50;;;;;;4918519;28;95374;-58
2022/08/26 04:46:52;;;;;;;61.38;50.35;;;26.00;58.50;;;;;;4919700;28;92333;-58
2022/08/26 04:49:19;;;;;;;60.95;50.38;;;26.00;58.50;;;;;;4929256;28;90105;-58
2022/08/26 04:51:45;;;;;;;61.63;50.45;;;26.00;58.50;;;;;;4917862;28;90164;-58
2022/08/26 04:54:12;;;;;;;61.80;50.65;;;26.00;58.60;;;;;;4927855;28;90722;-58
2022/08/26 04:56:41;;;;;;;62.50;50.63;;;26.00;58.60;;;;;;4913196;28;89646;-58
2022/08/26 04:59:10;;;;;;;60.60;50.25;;;26.00;58.50;;;;;;4914806;28;94504;-59
2022/08/26 05:01:37;;;;;;;62.63;50.47;;;26.00;58.60;;;;;;4917154;28;91549;-55
2022/08/26 05:04:04;;;;;;;61.90;50.45;;;26.00;58.70;;;;;;4914869;28;90901;-60
2022/08/26 05:06:30;;;;;;;62.95;50.25;;;26.00;58.70;;;;;;4913772;28;91398;-57
2022/08/26 05:08:56;;;;;;;62.25;50.42;;;26.00;58.60;;;;;;4918522;28;89725;-57
2022/08/26 05:11:22;;;;;;;61.03;50.35;;;26.00;58.50;;;;;;4918008;28;90981;-58
2022/08/26 05:13:47;;;;;;;60.92;50.25;;;26.00;58.50;;;;;;4912455;28;90888;-58
2022/08/26 05:16:14;;;;;;;60.25;50.10;;;26.00;58.60;;;;;;4918607;28;91508;-58
2022/08/26 05:18:42;;;;;;;61.55;50.22;;;26.00;58.40;;;;;;4915690;28;90390;-58
2022/08/26 05:21:18;;;;;;;61.17;50.38;;;26.00;58.50;;;;;;4921217;28;92064;-57
2022/08/26 05:23:45;;;;;;;60.67;50.33;;;26.00;58.60;;;;;;4922252;28;90333;-58
2022/08/26 05:26:10;;;;;;;61.05;50.25;;;26.00;58.60;;;;;;4917983;28;90291;-58
2022/08/26 05:28:36;;;;;;;61.63;50.45;;;26.00;58.50;;;;;;4907082;28;91375;-57
2022/08/26 05:31:16;;;;;;;61.88;50.35;;;26.00;58.60;;;;;;4905501;28;91680;-58
2022/08/26 05:33:42;;;;;;;60.72;50.40;;;26.00;58.50;;;;;;4911676;28;91494;-58
2022/08/26 05:36:11;;;;;;;60.75;50.15;;;26.00;58.50;;;;;;4915895;28;90170;-58
2022/08/26 05:38:37;;;;;;;64.70;50.50;;;26.00;58.50;;;;;;4917481;28;91160;-58
2022/08/26 05:41:12;;;;;;;61.22;50.55;;;26.00;58.60;;;;;;4918414;28;89986;-59
2022/08/26 05:43:38;;;;;;;61.03;50.45;;;26.00;58.50;;;;;;4908614;28;90979;-58
2022/08/26 05:46:06;;;;;;;61.80;50.45;;;26.00;58.60;;;;;;4916829;28;90403;-58
2022/08/26 05:48:31;;;;;;;61.45;50.40;;;26.00;58.60;;;;;;4910378;28;90838;-58
2022/08/26 05:51:03;;;;;;;61.28;50.65;;;26.00;58.80;;;;;;4913089;28;89570;-58
2022/08/26 05:53:30;;;;;;;61.15;50.55;;;26.00;58.90;;;;;;4913822;28;91162;-58
2022/08/26 05:55:55;;;;;;;63.63;50.55;;;26.00;59.00;;;;;;4914602;28;91302;-55
2022/08/26 05:58:22;;;;;;;63.05;50.72;;;26.00;59.20;;;;;;4902471;28;91077;-52
2022/08/26 06:01:13;;;;;;;64.07;50.38;;;25.90;58.40;;;;;;4912861;28;91390;-53
2022/08/26 06:03:43;;;;;;;63.28;50.45;;;25.40;59.90;;;;;;4918870;28;90282;-52
2022/08/26 06:06:13;;;;;;;61.95;50.63;;;25.20;60.40;;;;;;4921687;28;90495;-56
2022/08/26 06:08:39;;;;;;;62.92;50.33;;;25.20;59.90;;;;;;4919931;28;92006;-52
2022/08/26 06:11:09;;;;;;;62.95;50.45;;;25.00;59.80;;;;;;4925052;28;89080;-57
2022/08/26 06:13:35;;;;;;;63.25;50.47;;;24.80;60.50;;;;;;4903076;28;94514;-54
2022/08/26 06:16:10;;;;;;;62.38;50.50;;;24.80;60.30;;;;;;4907112;28;90330;-56
2022/08/26 06:18:39;;;;;;;63.65;50.45;;;24.80;60.10;;;;;;4922414;28;90872;-54
2022/08/26 06:21:17;;;;;;;63.53;50.45;;;24.80;61.00;;;;;;4925538;28;90205;-56
2022/08/26 06:26:29;;;;;;;64.40;50.65;;;24.70;60.10;;;;;;4914567;28;90698;-55
2022/08/26 06:28:55;;;;;;;62.55;50.15;;;24.60;61.20;;;;;;4921249;28;90345;-55
2022/08/26 06:31:22;;;;;;;63.35;50.80;;;24.50;60.90;;;;;;4917383;28;90286;-53
2022/08/26 06:33:48;;;;;;;64.50;50.85;;;24.60;61.10;;;;;;4906119;28;90714;-51
2022/08/26 06:36:25;;;;;;;65.15;50.53;;;24.40;62.10;;;;;;4900723;28;90572;-55
2022/08/26 06:38:53;;;;;;;66.63;50.75;;;24.20;62.40;;;;;;4907484;28;89514;-54
2022/08/26 06:41:20;;;;;;;64.22;50.58;;;24.30;62.50;;;;;;4904807;28;93167;-54
2022/08/26 06:43:46;;;;;;;63.88;50.58;;;24.40;61.80;;;;;;4913063;28;93177;-56
2022/08/26 06:46:16;;;;;;;65.53;50.38;;;24.40;61.20;;;;;;4900524;28;91415;-54
2022/08/26 06:48:42;;;;;;;61.53;50.25;;;24.40;61.60;;;;;;4907162;28;94930;-54
2022/08/26 06:51:14;;;;;;;62.00;50.20;;;24.50;61.10;;;;;;4910879;28;89689;-53
2022/08/26 06:53:41;;;;;;;62.88;50.40;;;24.50;61.40;;;;;;4908079;28;92486;-55
2022/08/26 06:56:09;;;;;;;67.47;50.72;;;24.60;61.50;;;;;;4911463;28;90753;-54
2022/08/26 06:58:37;;;;;;;62.42;50.63;;;24.60;60.30;;;;;;4909488;28;93338;-52
2022/08/26 07:01:12;;;;;;;62.58;50.28;;;24.40;61.30;;;;;;4919954;28;90844;-55
2022/08/26 07:03:38;;;;;;;61.50;50.22;;;24.30;61.70;;;;;;4920740;28;91802;-54
2022/08/26 07:06:04;;;;;;;61.70;49.92;;;24.10;62.60;;;;;;4926266;28;91043;-55
2022/08/26 07:08:30;;;;;;;63.25;50.35;;;24.10;62.50;;;;;;4912899;28;93505;-56
2022/08/26 07:10:56;;;;;;;66.22;50.22;;;24.20;62.40;;;;;;4931360;28;93204;-55
2022/08/26 07:13:24;;;;;;;62.25;50.03;;;24.20;62.10;;;;;;4912857;28;94248;-54
2022/08/26 07:15:52;;;;;;;62.10;50.40;;;24.30;61.90;;;;;;4905102;28;90461;-55
2022/08/26 07:18:17;;;;;;;62.95;50.25;;;24.20;62.00;;;;;;4917873;28;89496;-55
2022/08/26 07:20:43;;;;;;;61.95;50.05;;;24.10;62.80;;;;;;4918005;28;90854;-55
2022/08/26 07:23:10;;;;;;;63.03;50.40;;;24.20;62.70;;;;;;4904641;28;92036;-55
2022/08/26 07:25:40;;;;;;;62.50;50.15;;;24.20;62.00;;;;;;4911530;28;89460;-54
2022/08/26 07:28:07;;;;;;;61.47;50.03;;;24.10;62.60;;;;;;4919238;28;90726;-53
2022/08/26 07:30:37;;;;;;;63.17;50.45;;;24.10;62.70;;;;;;4906370;28;92221;-53
2022/08/26 07:33:03;;;;;;;62.58;50.10;;;24.20;62.40;;;;;;4911096;28;93103;-55
2022/08/26 07:35:29;;;;;;;61.30;50.08;;;24.30;61.80;;;;;;4912092;28;96037;-56
2022/08/26 07:37:54;;;;;;;61.75;50.00;;;24.00;62.50;;;;;;4919833;28;92504;-55
2022/08/26 07:40:20;;;;;;;62.13;50.05;;;24.10;62.40;;;;;;4918659;28;91775;-55
2022/08/26 07:42:46;;;;;;;63.63;50.33;;;24.30;62.30;;;;;;4911255;28;94198;-55
2022/08/26 07:45:12;;;;;;;61.67;50.15;;;24.30;61.70;;;;;;4924651;28;90992;-53
2022/08/26 07:47:38;;;;;;;61.45;50.17;;;24.30;61.50;;;;;;4913467;28;96432;-49
2022/08/26 07:50:04;;;;;;;62.35;50.47;;;24.40;61.40;;;;;;4913561;28;90189;-51
2022/08/26 07:52:30;;;;;;;63.17;50.35;;;24.40;60.20;;;;;;4924061;28;90409;-51
2022/08/26 07:54:57;;;;;;;62.10;49.97;;;24.20;61.20;;;;;;4927438;28;90999;-55
2022/08/26 07:57:25;;;;;;;62.55;50.17;;;24.00;62.80;;;;;;4921527;28;92119;-52
2022/08/26 07:59:51;;;;;;;62.97;50.13;;;24.10;62.30;;;;;;4913381;28;90429;-51
2022/08/26 08:02:17;;;;;;;62.60;50.22;;;24.00;61.90;;;;;;4934788;28;90152;-56
2022/08/26 08:04:43;;;;;;;63.60;50.35;;;24.20;61.50;;;;;;4923442;28;90253;-49
2022/08/26 08:07:08;;;;;;;62.35;50.25;;;24.20;61.00;;;;;;4922665;28;90213;-56
2022/08/26 08:09:34;;;;;;;61.17;49.95;;;24.20;61.70;;;;;;4925683;28;89884;-51
2022/08/26 08:12:00;;;;;;;63.35;50.15;;;24.40;61.30;;;;;;4933285;28;89866;-54
2022/08/26 08:14:26;;;;;;;60.92;50.38;;;24.30;60.80;;;;;;4912587;28;94078;-52
2022/08/26 08:16:51;;;;;;;61.63;50.25;;;24.40;61.10;;;;;;4926996;28;91606;-52
2022/08/26 08:19:17;;;;;;;61.15;49.97;;;24.50;60.20;;;;;;4918838;28;90609;-55
2022/08/26 08:21:43;;;;;;;62.33;50.00;;;24.40;59.70;;;;;;4903835;28;91912;-53
2022/08/26 08:24:10;;;;;;;61.47;50.13;;;24.40;60.10;;;;;;4928393;28;91962;-52
2022/08/26 08:26:36;;;;;;;63.72;49.80;;;24.20;60.40;;;;;;4924296;28;91069;-53
2022/08/26 08:29:02;;;;;;;61.78;50.15;;;24.20;60.60;;;;;;4920664;28;93021;-51
2022/08/26 08:31:30;;;;;;;63.40;50.25;;;24.40;60.60;;;;;;4929877;28;90946;-52
2022/08/26 08:33:56;;;;;;;60.63;49.92;;;24.40;60.40;;;;;;4919541;28;90747;-53
2022/08/26 08:36:21;;;;;;;60.15;50.05;;;24.30;60.10;;;;;;4921932;28;92414;-54
2022/08/26 08:38:47;;;;;;;60.67;49.95;;;24.30;59.70;;;;;;4922961;28;89522;-54
2022/08/26 08:41:39;;;;;;;62.20;50.15;;;24.40;60.30;;;;;;4919742;28;91421;-53
2022/08/26 08:44:12;;;;;;;63.50;50.20;;;24.70;59.00;;;;;;4917903;28;90675;-51
2022/08/26 08:46:40;;;;;;;64.47;50.50;;;24.70;58.40;;;;;;4927406;28;91251;-51
2022/08/26 08:49:08;;;;;;;61.45;49.90;;;24.50;58.30;;;;;;4917335;28;90577;-54
2022/08/26 08:52:01;;;;;;;61.60;50.15;;;24.40;59.20;;;;;;4913631;28;90450;-52
2022/08/26 08:54:27;;;;;;;61.13;50.13;;;24.50;58.50;;;;;;4923324;28;90549;-54
2022/08/26 08:57:20;;;;;;;61.22;50.35;;;24.50;58.60;;;;;;4923013;28;90690;-53
2022/08/26 09:00:05;;;;;;;65.22;50.45;;;24.70;57.90;;;;;;4922491;28;96144;-51
2022/08/26 09:02:46;;;;;;;63.65;50.22;;;24.70;57.60;;;;;;4925450;28;95440;-55
2022/08/26 09:05:33;;;;;;;62.60;50.15;;;24.70;57.90;;;;;;4926527;28;92662;-52
2022/08/26 09:08:03;;;;;;;62.97;50.13;;;24.60;58.20;;;;;;4922426;28;90135;-53
2022/08/26 09:10:45;;;;;;;63.50;50.35;;;24.70;58.60;;;;;;4923005;28;90314;-54
2022/08/26 09:13:13;;;;;;;61.67;50.08;;;24.80;57.90;;;;;;4915544;28;92033;-52
2022/08/26 09:15:45;;;;;;;61.00;49.97;;;24.80;57.70;;;;;;4923609;28;91035;-53
2022/08/26 09:18:32;;;;;;;66.47;50.45;;;24.80;58.10;;;;;;4920786;28;90457;-54
2022/08/26 09:21:04;;;;;;;63.67;50.33;;;24.70;57.90;;;;;;4923144;28;89961;-54
2022/08/26 09:23:32;;;;;;;62.15;50.30;;;24.70;58.90;;;;;;4922481;28;93023;-54
2022/08/26 09:26:01;;;;;;;65.50;50.25;;;24.80;59.40;;;;;;4925799;28;90675;-53
2022/08/26 09:28:29;;;;;;;64.03;50.33;;;24.90;58.60;;;;;;4925340;28;91280;-53
2022/08/26 09:31:12;;;;;;;62.72;50.28;;;25.00;58.10;;;;;;4913786;28;90803;-53
2022/08/26 09:33:39;;;;;;;64.28;50.47;;;25.10;57.60;;;;;;4920337;28;92310;-52
2022/08/26 09:36:31;;;;;;;61.53;50.25;;;25.10;57.60;;;;;;4913678;28;95449;-54
2022/08/26 09:38:58;;;;;;;61.65;50.55;;;25.20;56.80;;;;;;4921126;28;92673;-54
2022/08/26 09:41:31;;;;;;;61.67;50.25;;;25.00;56.30;;;;;;4918894;28;90659;-54
2022/08/26 09:44:07;;;;;;;63.50;50.20;;;24.90;56.50;;;;;;4914882;28;91466;-53
2022/08/26 09:46:34;;;;;;;63.47;50.28;;;24.90;56.80;;;;;;4923043;28;90225;-53
2022/08/26 09:49:25;;;;;;;62.65;50.45;;;25.00;56.10;;;;;;4916307;28;91082;-55
2022/08/26 09:52:09;;;;;;;;;;;25.00;57.20;;;;;;4914099;28;90609;-51
2022/08/26 09:54:36;;;;;;;62.22;50.65;;;25.00;57.20;;;;;;4934598;28;89915;-54
2022/08/26 09:57:23;;;;;;;62.33;50.13;;;25.10;57.20;;;;;;4933982;28;90329;-53
2022/08/26 09:59:49;;;;;;;62.25;50.55;;;25.10;56.90;;;;;;4919795;28;90629;-49
2022/08/26 10:02:29;;;;;;;62.35;50.47;;;25.10;55.90;;;;;;4906505;28;96520;-56
2022/08/26 10:04:57;;;;;;;62.47;50.55;;;25.20;58.10;;;;;;4914340;28;91768;-56
2022/08/26 10:07:40;;;;;;;61.65;50.35;;;25.20;57.20;;;;;;4916412;28;92090;-57
2022/08/26 10:10:24;;;;;;;61.55;50.50;;;25.30;57.40;;;;;;4924200;28;93107;-56
2022/08/26 10:13:02;;;;;;;62.70;50.17;;;25.40;55.00;;;;;;4922752;28;90045;-57
2022/08/26 10:15:51;;;;;;;62.45;50.35;;;25.30;54.80;;;;;;4920494;28;93140;-53
2022/08/26 10:18:46;;;;;;;63.22;50.30;;;25.00;56.20;;;;;;4906018;28;91844;-52
2022/08/26 10:21:22;;;;;;;61.90;50.35;;;25.10;56.90;;;;;;4902672;28;93508;-54
2022/08/26 10:23:52;;;;;;;61.45;50.05;;;25.30;55.60;;;;;;4912777;28;91448;-54
2022/08/26 10:26:43;;;;;;;61.70;50.13;;;25.10;54.50;;;;;;4904471;28;92191;-53
2022/08/26 10:29:12;;;;;;;;;;;25.00;53.90;;;;;;4918317;28;90279;-56
2022/08/26 10:31:43;;;;;;;62.60;50.03;;;25.00;55.20;;;;;;4917811;28;91443;-57
2022/08/26 10:34:10;;;;;;;61.92;50.10;;;24.90;55.00;;;;;;4920124;28;91312;-57
2022/08/26 10:36:51;;;;;;;60.63;50.25;;;25.10;56.20;;;;;;4914886;28;90010;-53
2022/08/26 10:39:48;;;;;;;62.67;50.35;;;25.10;54.70;;;;;;4917777;28;92551;-55
2022/08/26 10:42:44;;;;;;;61.25;50.10;;;25.20;56.40;;;;;;4920920;28;90100;-57
2022/08/26 10:45:14;;;;;;;65.32;50.17;;;25.30;54.90;;;;;;4919520;28;90208;-57
2022/08/26 10:47:53;;;;;;;62.25;50.30;;;25.30;55.60;;;;;;4916288;28;90603;-57
2022/08/26 10:50:30;;;;;;;61.45;50.22;;;25.20;55.00;;;;;;4917112;28;89120;-57
2022/08/26 10:53:15;;;;;;;60.88;50.30;;;25.00;54.90;;;;;;4929231;28;90891;-54
2022/08/26 10:55:51;;;;;;;65.70;50.22;;;25.20;55.10;;;;;;4920356;28;90013;-56
2022/08/26 10:58:44;;;;;;;61.72;50.40;;;25.10;54.80;;;;;;4921732;28;92847;-56
2022/08/26 11:04:27;;;;;;;64.25;50.72;;;25.50;56.20;;;;;;4925565;28;96343;-55
2022/08/26 11:07:30;;;;;;;64.90;50.75;;;25.60;53.50;;;;;;4910454;28;91349;-56
2022/08/26 11:09:59;;;;;;;62.50;50.53;;;25.70;54.40;;;;;;4912202;28;90552;-56
2022/08/26 11:12:34;;;;;;;61.50;50.42;;;25.80;53.80;;;;;;4925241;28;90129;-54
2022/08/26 11:15:01;;;;;;;61.70;50.47;;;25.60;52.80;;;;;;4917001;28;91066;-56
2022/08/26 11:17:45;;;;;;;64.30;50.33;;;25.40;52.80;;;;;;4925064;28;90915;-55
2022/08/26 11:20:26;;;;;;;61.05;50.15;;;25.40;54.70;;;;;;4929595;28;91362;-56
2022/08/26 11:22:54;;;;;;;63.42;50.42;;;25.60;55.50;;;;;;4921807;28;92469;-57
2022/08/26 11:25:24;;;;;;;61.63;50.63;;;25.80;53.60;;;;;;4932061;28;93042;-55
2022/08/26 11:27:56;;;;;;;66.72;50.75;;;25.80;53.80;;;;;;4930551;28;94678;-55
2022/08/26 11:30:23;;;;;;;61.97;50.63;;;25.80;54.70;;;;;;4918357;28;92271;-55
2022/08/26 11:32:57;;;;;;;62.13;50.55;;;25.80;52.20;;;;;;4924179;28;90227;-56
2022/08/26 11:35:23;;;;;;;61.67;50.38;;;25.60;53.00;;;;;;4924709;28;89803;-55
2022/08/26 11:38:17;;;;;;;63.00;50.50;;;25.50;52.80;;;;;;4936227;28;91168;-56
2022/08/26 11:40:43;;;;;;;62.08;50.60;;;25.50;53.20;;;;;;4924319;28;90794;-53
2022/08/26 11:43:16;;;;;;;64.65;50.55;;;25.60;54.70;;;;;;4922792;28;91889;-54
2022/08/26 11:45:43;;;;;;;62.40;50.65;;;25.70;53.50;;;;;;4922573;28;90541;-54
2022/08/26 11:48:15;;;;;;;61.85;50.55;;;25.70;53.60;;;;;;4945548;28;91793;-57
2022/08/26 11:50:55;;;;;;;62.22;50.47;;;25.60;53.90;;;;;;4930326;28;92339;-56
2022/08/26 11:53:22;;;;;;;63.65;50.55;;;25.70;53.90;;;;;;4927506;28;91599;-56
2022/08/26 11:55:51;;;;;;;62.55;50.28;;;25.60;52.70;;;;;;4931961;28;89785;-56
2022/08/26 11:58:18;;;;;;;61.70;50.53;;;25.60;52.40;;;;;;4931148;28;89556;-55
2022/08/26 12:00:58;;;;;;;63.60;50.78;;;25.70;56.10;;;;;;4929339;28;90954;-56
2022/08/26 12:03:37;;;;;;;62.33;50.75;;;25.80;54.70;;;;;;4927489;28;90145;-57
2022/08/26 12:06:29;;;;;;;62.25;50.78;;;25.70;52.90;;;;;;4918574;28;90558;-56
2022/08/26 12:09:00;;;;;;;63.83;50.95;;;25.90;52.40;;;;;;4931902;28;89454;-54
2022/08/26 12:11:31;;;;;;;61.78;50.58;;;26.00;53.90;;;;;;4930425;28;91107;-49
2022/08/26 12:14:03;;;;;;;62.83;50.88;;;26.00;54.10;;;;;;4919012;28;90280;-54
2022/08/26 12:16:32;;;;;;;65.20;50.85;;;26.00;54.00;;;;;;4939210;28;92568;-54
2022/08/26 12:18:58;;;;;;;62.42;50.80;;;26.00;54.10;;;;;;4930418;28;89907;-50
2022/08/26 12:21:29;;;;;;;63.90;50.88;;;26.00;54.20;;;;;;4928375;28;90608;-53
2022/08/26 12:23:58;;;;;;;63.22;51.03;;;26.00;54.40;;;;;;4927347;28;91033;-51
2022/08/26 12:26:33;;;;;;;61.95;50.85;;;26.00;54.40;;;;;;4925905;28;91182;-55
2022/08/26 12:29:04;;;;;;;63.45;50.72;;;26.10;54.40;;;;;;4929335;28;90389;-51
2022/08/26 12:31:36;;;;;;;62.03;50.85;;;26.10;54.50;;;;;;4919336;28;90585;-51
2022/08/26 12:34:06;;;;;;;62.85;50.83;;;26.10;54.50;;;;;;4935086;28;90078;-53
2022/08/26 12:36:47;;;;;;;62.70;51.00;;;26.10;55.20;;;;;;4920026;28;95296;-54
2022/08/26 12:39:23;;;;;;;62.97;51.05;;;26.10;54.50;;;;;;4923843;28;90661;-52
2022/08/26 12:41:58;;;;;;;62.25;50.80;;;26.10;54.60;;;;;;4924226;28;96645;-52
2022/08/26 12:44:31;;;;;;;62.40;50.70;;;26.10;54.60;;;;;;4934350;28;91657;-50
2022/08/26 12:47:24;;;;;;;62.78;50.88;;;26.10;54.80;;;;;;4918947;28;89991;-51
2022/08/26 12:50:17;;;;;;;61.97;50.92;;;26.10;54.80;;;;;;4907782;28;91616;-52